Pueblo Of Acoma, New Mexico
Current Conditions -  °F | °C
As of 4:37 PM on Monday 20 Oct 2014 (Local Time) from KGNT Reporting Station
Thunderstorm Thunderstorm  
Wind Chill: 66°   Ceiling: Unl
Heat Index: 66°   Visibility: 10mi
Dew Point: 37°   Wind: 13mph
Humidity: 35%   Direction: 120°ESE
Pressure: 30.17"   Gusts: 16mph
Location:  35.08°N, 107.6°W
Report Text: KGNT 202237Z AUTO 12011G14KT 10SM VCTS SCT060 19/03 A3017 RMK AO2 LTG DSNT SE
Loading
Personal Weather Stations






























Interactive Weather Map
Tropical Storm Tracking
New forecast layout! Learn more

10-Day Weather Forecast

Advertisements
Track Severe Weather on mobile